Frederika, Iowa
Current Conditions -  °F | °C
As of 9:35 AM on Monday 22 Dec 2014 (Local Time) from KCCY Reporting Station
Unknown Precip Unknown Precip  
Wind Chill: -3°   Ceiling: 800
Heat Index:   Visibility: 2mi
Dew Point:   Wind: 15mph
Humidity: 100%   Direction: 130°SE
Pressure: 29.67"   Gusts: 21mph
Location:  42.88°N, 92.31°W
Report Text: KCCY 221535Z AUTO 13013G18KT 2SM -UP BKN008 OVC014 02/02 A2967 RMK AO2
Loading
Personal Weather Stations






























Interactive Weather Map New forecast layout! Learn more

10-Day Weather Forecast

Advertisements
Track Severe Weather on mobile